Flight Track Log - Related Links

Times and Time Zones

All times are in EDT time to prevent confusion due to time zone crossing. See the TAM3129 flight status page for this flight to view local times or setup timezone preferences in your user account.

Time Position Orientation Groundspeed Altitude Reporting Facility
EDT Latitude Longitude Course Direction KTS MPH feet Rate Location/Type
Fri 05:25:00 AM -21.1794 -41.9546 239° Southwest  Level Estimated
Fri 05:26:00 AM -21.2251 -42.0386 240° Southwest  Level Estimated
Fri 05:27:00 AM -21.2707 -42.1226 240° Southwest  Level Estimated
Fri 05:28:00 AM -21.3162 -42.2066 240° Southwest  Level Estimated
Fri 05:29:00 AM -21.3618 -42.2907 240° Southwest  Level Estimated
Fri 05:30:00 AM -21.4072 -42.3749 240° Southwest  Level Estimated
Fri 05:31:00 AM -21.4527 -42.4591 240° Southwest  Level Estimated
Fri 05:32:00 AM -21.4981 -42.5433 240° Southwest  Level Estimated
Fri 05:33:00 AM -21.5434 -42.6276 240° Southwest  Level Estimated
Fri 05:34:00 AM -21.5887 -42.7120 240° Southwest  Level Estimated
Fri 05:35:00 AM -21.6340 -42.7964 240° Southwest  Level Estimated
Fri 05:36:00 AM -21.6792 -42.8809 240° Southwest  Level Estimated
Fri 05:37:00 AM -21.7244 -42.9654 240° Southwest  Level Estimated
Fri 05:38:00 AM -21.7695 -43.0500 240° Southwest  Level Estimated
Fri 05:39:00 AM -21.8146 -43.1346 240° Southwest  Level Estimated
Fri 05:40:00 AM -21.8597 -43.2193 240° Southwest  Level Estimated
Fri 05:41:00 AM -21.9047 -43.3041 240° Southwest  Level Estimated
Fri 05:42:00 AM -21.9496 -43.3888 240° Southwest  Level Estimated
Fri 05:43:00 AM -21.9946 -43.4737 240° Southwest  Level Estimated
Fri 05:44:00 AM -22.0394 -43.5586 240° Southwest  Level Estimated
Fri 05:45:00 AM -22.0843 -43.6435 240° Southwest  Level Estimated
Fri 05:46:00 AM -22.1290 -43.7285 240° Southwest  Level Estimated
Fri 05:47:00 AM -22.1738 -43.8136 240° Southwest  Level Estimated
Fri 05:48:00 AM -22.2185 -43.8987 240° Southwest  Level Estimated
Fri 05:49:00 AM -22.2631 -43.9839 240° Southwest  Level Estimated
Fri 05:50:00 AM -22.3078 -44.0691 240° Southwest  Level Estimated
Fri 05:51:00 AM -22.3523 -44.1544 241° Southwest  Level Estimated
Fri 05:52:00 AM -22.3969 -44.2397 241° Southwest  Level Estimated
Fri 05:53:00 AM -22.4413 -44.3251 241° Southwest  Level Estimated
Fri 05:54:00 AM -22.4858 -44.4105 241° Southwest  Level Estimated
Fri 05:55:00 AM -22.5301 -44.4960 241° Southwest  Level Estimated
Fri 05:56:00 AM -22.5745 -44.5816 241° Southwest  Level Estimated
Fri 05:57:00 AM -22.6188 -44.6672 241° Southwest  Level Estimated
Fri 05:58:00 AM -22.6630 -44.7529 241° Southwest  Level Estimated
Fri 05:59:00 AM -22.7073 -44.8386 241° Southwest  Level Estimated
Fri 06:00:00 AM -22.7514 -44.9244 241° Southwest  Level Estimated
Fri 06:01:00 AM -22.7955 -45.0102 241° Southwest  Level Estimated
Fri 06:02:00 AM -22.8396 -45.0961 241° Southwest  Level Estimated
Fri 06:03:00 AM -22.8836 -45.1820 241° Southwest  Level Estimated
Fri 06:04:00 AM -22.9276 -45.2680 241° Southwest  Level Estimated
Fri 06:05:00 AM -22.9715 -45.3540 241° Southwest  Level Estimated
Fri 06:06:00 AM -23.0154 -45.4402 241° Southwest  Level Estimated
Fri 06:07:00 AM -23.0592 -45.5263 241° Southwest  Level Estimated
Fri 06:08:00 AM -23.1030 -45.6125 241° Southwest  Level Estimated
Fri 06:09:00 AM -23.1468 -45.6988 241° Southwest  Level Estimated
Fri 06:10:00 AM -23.1905 -45.7851 241° Southwest  Level Estimated
Fri 06:11:00 AM -23.2341 -45.8715 241° Southwest  Level Estimated
Fri 06:12:00 AM -23.2777 -45.9580 241° Southwest  Level Estimated
Fri 06:13:00 AM -23.3213 -46.0445 241° Southwest  Level Estimated
Fri 06:14:00 AM -23.3648 -46.1310 241° Southwest  Level Estimated
Fri 06:15:00 AM -23.4082 -46.2176 241° Southwest  Level Estimated
Fri 06:16:00 AM -23.4516 -46.3043 241° Southwest  Level Estimated
Fri 06:17:00 AM -23.4950 -46.3910 241° Southwest  Level Estimated
Fri 06:18:00 AM -23.5383 -46.4778 241° Southwest  Level Estimated
Fri 06:19:00 AM -23.5816 -46.5647 241° Southwest  Level Estimated
Fri 06:20:00 AM -23.6248 -46.6516 241° Southwest  Level Estimated
Fri 06:21:00 AM -23.6267 -46.6554 242° Southwest  Level Estimated
Fri 06:22:00 AM -23.6267 -46.6554 114° Southeast  Level Estimated
Fri 06:23:00 AM -23.6267 -46.6554 114° Southeast  Level Estimated
Fri 06:24:00 AM -23.6267 -46.6554 114° Southeast  Level Estimated
Fri 06:25:00 AM -23.6267 -46.6554 114° Southeast  Level Estimated
Fri 06:26:00 AM -23.6267 -46.6554 114° Southeast  Level Estimated
Fri 06:27:00 AM -23.6267 -46.6554 114° Southeast  Level Estimated
Fri 06:28:00 AM -23.6267 -46.6554 114° Southeast  Level Estimated
Fri 06:29:00 AM -23.6267 -46.6554 114° Southeast  Level Estimated
Fri 06:30:00 AM -23.6267 -46.6554 114° Southeast  Level Estimated
Fri 06:31:00 AM -23.6267 -46.6554 114° Southeast  Level Estimated
Fri 06:32:00 AM -23.6267 -46.6554 114° Southeast  Level Estimated
Fri 06:33:00 AM -23.6267 -46.6554 114° Southeast  Level Estimated
Fri 06:34:00 AM -23.6267 -46.6554 114° Southeast  Level Estimated
Fri 06:35:00 AM -23.6267 -46.6554 114° Southeast  Level Estimated
Fri 06:36:00 AM -23.6267 -46.6554 114° Southeast  Level Estimated

Login

Don't have an account? Register now (free) for customized features, flight alerts, and more!